Kajaani, Kajaani Airport (EFKI)

NameKajaani Airport
CityKajaani
CountryFinland
ICAOEFKI
IATAKAJ
Altitude147 m
CoordinatesGoogle Map
Live Air TrafficLiveATC.net
METAREFKI 251720Z AUTO 31014G25KT 280V340 9999 OVC039 02/M04 Q0994
2020-04-25 17:20:00 Wind: West-Northwest (310°) 7.2 m/s - Visibility: > 10000 m - Temperature: 2 °C - Dew point: -4 °C - Humidity: 64.8% - Pressure: 0994 hPa

Sorry, no flights used the airport in this database.